Time;durP1;ratioP1;P1;durP2;ratioP2;P2;SDS_P1;SDS_P2;PMS_P1;PMS_P2;Temp;Humidity;BMP_temperature;BMP_pressure;BME280_temperature;BME280_humidity;BME280_pressure;Samples;Min_cycle;Max_cycle;Signal;HPM_P1;HPM_P2
2022/06/13 00:01:15;;;;;;;2.20;1.33;;;;;;;18.64;100.00;94702.78;4978812;28;20037;-90
2022/06/13 00:03:40;;;;;;;2.90;1.50;;;;;;;18.70;100.00;94685.66;4978817;28;20026;-90
2022/06/13 00:06:06;;;;;;;5.53;1.50;;;;;;;18.90;100.00;94684.25;4979966;28;20352;-90
2022/06/13 00:08:32;;;;;;;1.70;1.45;;;;;;;18.82;100.00;94681.59;4962643;28;20138;-90
2022/06/13 00:10:57;;;;;;;2.33;1.30;;;;;;;18.89;100.00;94685.34;4962370;28;20169;-90
2022/06/13 00:13:23;;;;;;;2.05;1.48;;;;;;;19.01;100.00;94689.25;4978607;28;20360;-90
2022/06/13 00:15:48;;;;;;;2.05;1.30;;;;;;;18.96;100.00;94684.09;4962680;28;20027;-90
2022/06/13 00:18:14;;;;;;;4.45;1.40;;;;;;;18.94;100.00;94684.41;4978429;28;20041;-90
2022/06/13 00:20:39;;;;;;;2.20;1.23;;;;;;;18.99;100.00;94680.78;4978484;28;20121;-90
2022/06/13 00:23:05;;;;;;;1.20;1.10;;;;;;;18.93;100.00;94678.31;4978329;28;20031;-90
2022/06/13 00:25:31;;;;;;;3.40;1.30;;;;;;;18.95;100.00;94680.66;4977151;28;20081;-90
2022/06/13 00:28:40;;;;;;;1.67;1.23;;;;;;;19.06;100.00;94679.25;4978335;28;20444;-90
2022/06/13 00:31:06;;;;;;;2.03;1.20;;;;;;;19.07;100.00;94686.13;4978398;28;20034;-90
2022/06/13 00:33:31;;;;;;;2.20;1.10;;;;;;;19.23;100.00;94676.91;4978217;28;20089;-90
2022/06/13 00:35:56;;;;;;;3.63;1.38;;;;;;;19.07;100.00;94680.06;4979354;28;20081;-90
2022/06/13 00:38:22;;;;;;;1.77;1.17;;;;;;;19.12;100.00;94676.47;4979219;28;20081;-90
2022/06/13 00:40:48;;;;;;;2.33;1.00;;;;;;;19.06;100.00;94668.63;4979158;28;20070;-90
2022/06/13 00:43:15;;;;;;;1.98;1.00;;;;;;;19.06;100.00;94675.84;4977942;28;20030;-90
2022/06/13 00:45:41;;;;;;;2.28;1.00;;;;;;;19.05;100.00;94661.78;4977935;28;20050;-90
2022/06/13 00:48:07;;;;;;;2.45;1.15;;;;;;;18.99;100.00;94667.53;4977912;28;20031;-90
2022/06/13 00:50:45;;;;;;;3.30;1.20;;;;;;;19.01;100.00;94663.50;4977608;28;20035;-90
2022/06/13 00:53:17;;;;;;;3.35;1.10;;;;;;;18.98;100.00;94661.44;4977846;28;20101;-89
2022/06/13 00:55:52;;;;;;;2.10;1.25;;;;;;;19.01;100.00;94668.00;4978044;28;20406;-90
2022/06/13 00:58:18;;;;;;;5.18;1.25;;;;;;;19.13;99.18;94668.16;4978774;28;20027;-91
2022/06/13 01:00:47;;;;;;;2.30;1.13;;;;;;;18.71;100.00;94665.97;4978736;28;20031;-90
2022/06/13 01:03:13;;;;;;;1.20;1.10;;;;;;;18.64;100.00;94663.78;4977642;28;20027;-90
2022/06/13 01:05:43;;;;;;;1.98;1.30;;;;;;;18.83;100.00;94661.94;4977576;28;20049;-90
2022/06/13 01:08:09;;;;;;;4.10;1.20;;;;;;;18.84;100.00;94658.19;4977853;28;20029;-90
2022/06/13 01:13:20;;;;;;;3.90;1.50;;;;;;;18.87;100.00;94646.94;4977640;28;20364;-90
2022/06/13 01:15:48;;;;;;;2.25;1.30;;;;;;;19.06;99.11;94652.72;4977462;28;20031;-90
2022/06/13 01:18:29;;;;;;;1.60;1.08;;;;;;;18.97;98.00;94643.97;4977272;28;20376;-90
2022/06/13 01:21:10;;;;;;;1.52;1.02;;;;;;;18.57;100.00;94649.41;4977294;28;20029;-90
2022/06/13 01:23:57;;;;;;;1.48;1.25;;;;;;;18.31;100.00;94648.28;4978401;28;20445;-90
2022/06/13 01:26:25;;;;;;;3.25;1.20;;;;;;;18.06;100.00;94642.63;4978303;28;20449;-90
2022/06/13 01:29:25;;;;;;;1.80;1.23;;;;;;;18.28;100.00;94642.81;4978270;28;20038;-89
2022/06/13 01:32:15;;;;;;;1.58;1.10;;;;;;;18.48;100.00;94652.81;4977799;28;20046;-90
2022/06/13 01:35:00;;;;;;;1.98;1.02;;;;;;;18.19;100.00;94648.88;4978155;28;20408;-90
2022/06/13 01:37:34;;;;;;;2.03;1.20;;;;;;;18.19;100.00;94654.19;4977951;28;20347;-89
2022/06/13 01:40:52;;;;;;;2.33;1.20;;;;;;;17.94;100.00;94645.03;4978190;28;20041;-90
2022/06/13 01:43:24;;;;;;;1.20;1.10;;;;;;;18.15;100.00;94636.56;4974908;28;20073;-89
2022/06/13 01:45:59;;;;;;;3.45;1.23;;;;;;;18.22;100.00;94637.69;4977290;28;20084;-90
2022/06/13 01:49:00;;;;;;;1.33;1.10;;;;;;;18.29;100.00;94631.13;4990003;28;20054;-90
2022/06/13 01:51:37;;;;;;;4.82;1.13;;;;;;;18.40;100.00;94632.41;4985086;28;20414;-90
2022/06/13 01:54:30;;;;;;;4.07;1.20;;;;;;;18.32;100.00;94635.81;4997704;28;20041;-90
2022/06/13 01:57:11;;;;;;;2.28;1.38;;;;;;;18.48;100.00;94636.91;4996223;28;20042;-90
2022/06/13 01:59:57;;;;;;;1.45;1.17;;;;;;;18.57;100.00;94630.84;4994654;28;20049;-90
2022/06/13 02:02:34;;;;;;;4.03;1.30;;;;;;;18.54;100.00;94628.81;4960898;28;20041;-89
2022/06/13 02:05:07;;;;;;;1.20;1.00;;;;;;;18.53;100.00;94620.06;4994784;28;20129;-89
2022/06/13 02:07:39;;;;;;;1.83;1.35;;;;;;;18.55;100.00;94630.38;4996261;28;20065;-89
2022/06/13 02:10:23;;;;;;;5.57;1.02;;;;;;;18.60;100.00;94628.34;4996224;28;20348;-90
2022/06/13 02:12:53;;;;;;;2.05;1.20;;;;;;;18.58;100.00;94622.59;4980185;28;20482;-90
2022/06/13 02:15:31;;;;;;;1.67;1.30;;;;;;;18.51;100.00;94615.09;4964880;28;20360;-90
2022/06/13 02:18:09;;;;;;;3.53;1.20;;;;;;;18.46;100.00;94611.81;4960684;28;20031;-90
2022/06/13 02:20:37;;;;;;;1.90;1.13;;;;;;;18.59;100.00;94610.88;4960955;28;20030;-90
2022/06/13 02:23:12;;;;;;;3.25;1.52;;;;;;;18.56;100.00;94611.47;4976546;28;20037;-90
2022/06/13 02:25:45;;;;;;;4.53;1.10;;;;;;;18.42;100.00;94614.28;4977856;28;20041;-89
2022/06/13 02:28:18;;;;;;;4.70;1.30;;;;;;;18.21;100.00;94612.22;4976886;28;20038;-90
2022/06/13 02:30:48;;;;;;;2.47;1.02;;;;;;;18.31;100.00;94621.78;4976448;28;20400;-91
2022/06/13 02:33:18;;;;;;;5.47;1.30;;;;;;;18.45;100.00;94618.97;4960375;28;20039;-90
2022/06/13 02:36:16;;;;;;;2.97;1.15;;;;;;;18.34;100.00;94609.75;4976189;28;20038;-90
2022/06/13 02:39:02;;;;;;;2.30;1.17;;;;;;;18.26;100.00;94613.19;4942832;28;20070;-90
2022/06/13 02:41:35;;;;;;;3.65;1.25;;;;;;;18.21;100.00;94604.25;4956516;28;20030;-90
2022/06/13 02:44:11;;;;;;;2.58;1.42;;;;;;;18.33;100.00;94608.19;4960512;28;20133;-90
2022/06/13 02:46:42;;;;;;;1.80;1.20;;;;;;;18.44;100.00;94604.16;4976371;28;20343;-90
2022/06/13 02:49:12;;;;;;;2.72;1.17;;;;;;;18.44;100.00;94606.03;4961208;28;20430;-90
2022/06/13 02:51:40;;;;;;;1.83;1.17;;;;;;;18.58;100.00;94597.91;4980093;28;20030;-90
2022/06/13 02:54:30;;;;;;;5.97;1.10;;;;;;;18.58;100.00;94598.72;4981169;28;20027;-90
2022/06/13 03:00:18;;;;;;;1.85;1.40;;;;;;;18.68;100.00;94597.59;4980079;28;20038;-90
2022/06/13 03:03:16;;;;;;;2.08;1.20;;;;;;;18.57;100.00;94599.00;4955528;28;20039;-90
2022/06/13 03:06:02;;;;;;;1.45;1.35;;;;;;;18.43;100.00;94594.63;4980054;28;20033;-90
2022/06/13 03:08:38;;;;;;;1.90;1.45;;;;;;;18.51;100.00;94599.16;4979733;28;20325;-90
2022/06/13 03:11:38;;;;;;;4.22;1.30;;;;;;;18.48;100.00;94594.47;4979741;28;20023;-90
2022/06/13 03:14:12;;;;;;;2.45;1.35;;;;;;;18.18;100.00;94588.97;4980700;28;20023;-90
2022/06/13 03:16:40;;;;;;;2.25;1.38;;;;;;;18.14;100.00;94587.25;4979368;28;20094;-90
2022/06/13 03:19:20;;;;;;;2.33;1.20;;;;;;;18.00;100.00;94585.47;4979711;28;20026;-91
2022/06/13 03:21:52;;;;;;;3.67;1.42;;;;;;;17.81;100.00;94586.53;4963582;28;20027;-87
2022/06/13 03:24:26;;;;;;;5.13;1.13;;;;;;;17.56;100.00;94577.44;4979332;28;20105;-87
2022/06/13 03:26:57;;;;;;;4.20;1.50;;;;;;;17.85;100.00;94586.72;4979394;28;20019;-88
2022/06/13 03:29:37;;;;;;;1.98;1.20;;;;;;;17.93;100.00;94571.91;4980418;28;20129;-88
2022/06/13 03:32:19;;;;;;;1.38;1.10;;;;;;;17.84;100.00;94577.19;4993319;28;20034;-87
2022/06/13 03:34:50;;;;;;;5.78;1.30;;;;;;;18.04;100.00;94569.78;4979741;28;20455;-87
2022/06/13 03:37:20;;;;;;;2.33;1.20;;;;;;;18.15;100.00;94572.94;4991295;28;20022;-87
2022/06/13 03:40:16;;;;;;;1.65;1.20;;;;;;;18.09;100.00;94572.31;4998679;28;20033;-87
2022/06/13 03:42:45;;;;;;;1.90;1.27;;;;;;;18.03;100.00;94566.38;4998795;28;20037;-87
2022/06/13 03:45:17;;;;;;;4.78;1.23;;;;;;;17.87;100.00;94579.22;4982517;28;20513;-87
2022/06/13 03:48:02;;;;;;;1.67;1.20;;;;;;;17.84;100.00;94576.41;4998977;28;20090;-87
2022/06/13 03:50:52;;;;;;;3.63;1.02;;;;;;;18.01;100.00;94570.38;4982575;28;20064;-88
2022/06/13 03:53:43;;;;;;;4.68;1.17;;;;;;;18.13;100.00;94572.44;4998260;28;20093;-89
2022/06/13 03:56:32;;;;;;;3.03;1.23;;;;;;;18.34;100.00;94567.31;4977565;28;20049;-89
2022/06/13 03:59:20;;;;;;;2.30;1.23;;;;;;;18.21;100.00;94564.50;4998380;28;20038;-88
2022/06/13 04:01:54;;;;;;;1.90;1.20;;;;;;;18.29;100.00;94555.00;4990522;28;20343;-87
2022/06/13 04:04:26;;;;;;;1.10;0.90;;;;;;;18.39;100.00;94559.22;4979103;28;20042;-87
2022/06/13 04:06:52;;;;;;;1.85;1.30;;;;;;;17.84;100.00;94563.94;4978963;28;20066;-87
2022/06/13 04:09:24;;;;;;;1.25;0.93;;;;;;;17.73;100.00;94565.31;4978766;28;20026;-88
2022/06/13 04:12:07;;;;;;;1.75;1.25;;;;;;;17.76;100.00;94554.91;4978803;28;20027;-87
2022/06/13 04:14:39;;;;;;;1.77;1.15;;;;;;;17.94;100.00;94562.88;4979934;28;20061;-87
2022/06/13 04:17:18;;;;;;;4.40;1.10;;;;;;;18.03;100.00;94557.63;4979752;28;20030;-88
2022/06/13 04:19:46;;;;;;;2.83;1.20;;;;;;;18.19;100.00;94556.06;4978685;28;20035;-88
2022/06/13 04:22:33;;;;;;;1.25;0.80;;;;;;;18.34;100.00;94560.16;4978863;28;20091;-88
2022/06/13 04:25:07;;;;;;;1.60;1.30;;;;;;;18.55;100.00;94556.84;4979336;28;20035;-88
2022/06/13 04:27:48;;;;;;;1.73;1.10;;;;;;;18.55;100.00;94553.44;4978661;28;20033;-88
2022/06/13 04:30:17;;;;;;;4.68;1.30;;;;;;;18.59;100.00;94552.50;4978252;28;20081;-88
2022/06/13 04:32:58;;;;;;;3.00;1.00;;;;;;;18.76;100.00;94551.69;4978493;28;20026;-88
2022/06/13 04:35:24;;;;;;;1.98;1.17;;;;;;;18.84;100.00;94558.06;4978387;28;20035;-88
2022/06/13 04:38:00;;;;;;;3.63;1.15;;;;;;;18.88;100.00;94555.56;4978274;28;20035;-90
2022/06/13 04:40:27;;;;;;;2.20;1.10;;;;;;;19.00;100.00;94558.41;4978312;28;20037;-87
2022/06/13 04:42:54;;;;;;;2.42;1.33;;;;;;;19.07;100.00;94560.56;4978527;28;20366;-88
2022/06/13 04:45:26;;;;;;;1.50;1.00;;;;;;;18.97;100.00;94556.34;4978569;28;20041;-88
2022/06/13 04:47:53;;;;;;;1.38;1.05;;;;;;;18.94;100.00;94562.28;4978113;28;20436;-88
2022/06/13 04:50:27;;;;;;;3.42;1.20;;;;;;;19.06;100.00;94565.09;4978048;28;20035;-89
2022/06/13 04:52:54;;;;;;;3.13;1.08;;;;;;;19.29;100.00;94564.09;4978414;28;20038;-87
2022/06/13 04:55:27;;;;;;;3.40;1.02;;;;;;;19.30;100.00;94565.66;4978117;28;20159;-88
2022/06/13 04:57:53;;;;;;;2.90;1.05;;;;;;;19.49;100.00;94559.94;4977947;28;20070;-88
2022/06/13 05:00:18;;;;;;;3.03;1.30;;;;;;;19.61;100.00;94553.97;4979017;28;20066;-88
2022/06/13 05:02:47;;;;;;;2.08;1.10;;;;;;;19.70;100.00;94565.31;4979131;28;20089;-88
2022/06/13 05:05:43;;;;;;;2.65;1.00;;;;;;;19.64;100.00;94561.31;4977888;28;20085;-89
2022/06/13 05:08:21;;;;;;;1.45;0.95;;;;;;;19.24;100.00;94561.59;4977046;28;20441;-88
2022/06/13 05:10:50;;;;;;;2.03;1.00;;;;;;;19.64;100.00;94562.06;4977790;28;20125;-88
2022/06/13 05:13:16;;;;;;;1.25;0.90;;;;;;;19.98;96.18;94569.44;4977211;28;20113;-88
2022/06/13 05:15:42;;;;;;;4.25;1.02;;;;;;;20.08;100.00;94571.72;4977634;28;20034;-87
2022/06/13 05:18:36;;;;;;;1.33;1.13;;;;;;;20.30;97.22;94569.84;4977512;28;20062;-87
2022/06/13 05:21:26;;;;;;;3.00;1.10;;;;;;;20.52;90.49;94575.97;4978481;28;20072;-87
2022/06/13 05:24:20;;;;;;;3.67;1.50;;;;;;;20.36;100.00;94565.88;4977278;28;20037;-87
2022/06/13 05:26:46;;;;;;;;;;;;;;;20.59;100.00;94566.34;4977843;28;20364;-86
2022/06/13 05:29:11;;;;;;;1.15;1.05;;;;;;;20.56;100.00;94566.97;4977386;28;19916;-88
2022/06/13 05:31:37;;;;;;;1.75;1.00;;;;;;;20.79;100.00;94558.66;4978597;28;20440;-87
2022/06/13 05:34:02;;;;;;;1.92;1.00;;;;;;;20.99;100.00;94557.09;4977320;28;20031;-87
2022/06/13 05:36:28;;;;;;;2.50;1.20;;;;;;;20.29;100.00;94557.66;4977420;28;20038;-87
2022/06/13 05:38:54;;;;;;;1.10;1.00;;;;;;;20.78;100.00;94551.78;4978290;28;20031;-88
2022/06/13 05:41:19;;;;;;;2.45;1.10;;;;;;;21.12;100.00;94557.88;4978201;28;20081;-88
2022/06/13 05:43:45;;;;;;;2.38;0.98;;;;;;;21.05;100.00;94553.09;4978723;28;20038;-89
2022/06/13 05:46:20;;;;;;;11.13;1.25;;;;;;;21.66;100.00;94566.06;4977524;28;20093;-89
2022/06/13 05:48:45;;;;;;;2.00;0.90;;;;;;;21.88;100.00;94572.88;4978226;28;20089;-89
2022/06/13 05:51:10;;;;;;;3.30;1.10;;;;;;;22.13;100.00;94570.94;4977144;28;20034;-89
2022/06/13 05:53:36;;;;;;;2.20;1.05;;;;;;;22.48;100.00;94576.91;4978622;28;20129;-90
2022/06/13 05:56:02;;;;;;;4.10;1.40;;;;;;;21.53;100.00;94574.06;4978283;28;20045;-90
2022/06/13 05:58:28;;;;;;;1.60;1.20;;;;;;;20.82;100.00;94578.56;4978194;28;20121;-89
2022/06/13 06:00:57;;;;;;;2.92;1.23;;;;;;;21.06;100.00;94585.84;4976736;28;20406;-89
2022/06/13 06:03:26;;;;;;;2.08;1.40;;;;;;;21.28;100.00;94583.88;4976896;28;20424;-90
2022/06/13 06:05:53;;;;;;;3.13;1.38;;;;;;;21.31;100.00;94576.00;4977805;28;20034;-89
2022/06/13 06:08:29;;;;;;;11.40;3.08;;;;;;;21.25;96.07;94580.00;4976140;28;20451;-87
2022/06/13 06:10:56;;;;;;;8.57;3.47;;;;;;;21.13;92.16;94582.66;4976883;28;20033;-87
2022/06/13 06:13:22;;;;;;;6.07;2.70;;;;;;;21.26;84.51;94578.13;4977828;28;20033;-88
2022/06/13 06:15:48;;;;;;;3.80;1.70;;;;;;;21.81;76.12;94588.63;4965376;28;20455;-88
2022/06/13 06:18:15;;;;;;;3.00;1.58;;;;;;;22.02;72.62;94580.50;4976800;28;20352;-88
2022/06/13 06:20:41;;;;;;;6.45;2.03;;;;;;;22.24;87.98;94589.16;4991927;28;20468;-88
2022/06/13 06:23:07;;;;;;;2.40;1.75;;;;;;;22.67;77.05;94590.41;4980222;28;20057;-88
2022/06/13 06:25:34;;;;;;;4.30;1.67;;;;;;;23.18;76.42;94596.31;4999716;28;20037;-88
2022/06/13 06:28:00;;;;;;;3.25;1.65;;;;;;;23.53;74.74;94596.47;4999939;28;20034;-88
2022/06/13 06:30:27;;;;;;;6.50;1.20;;;;;;;23.97;69.61;94592.13;5000112;28;20113;-87
2022/06/13 06:32:56;;;;;;;2.92;1.30;;;;;;;23.83;100.00;94598.72;4984083;28;20048;-90
2022/06/13 06:35:23;;;;;;;3.40;1.45;;;;;;;23.89;99.81;94606.47;4983762;28;20062;-90
2022/06/13 06:37:49;;;;;;;3.63;1.45;;;;;;;24.06;77.78;94600.00;4989018;28;20039;-88
2022/06/13 06:40:16;;;;;;;1.85;1.15;;;;;;;24.36;84.77;94605.63;4980758;28;20045;-89
2022/06/13 06:42:42;;;;;;;2.88;1.50;;;;;;;24.55;100.00;94596.06;4964353;28;20569;-89
2022/06/13 06:45:08;;;;;;;3.15;1.30;;;;;;;25.34;78.36;94593.34;4980492;28;20034;-90
2022/06/13 06:47:44;;;;;;;4.60;1.30;;;;;;;25.30;78.74;94606.69;4964217;28;20387;-89
2022/06/13 06:50:15;;;;;;;3.55;1.88;;;;;;;24.42;100.00;94606.13;4964407;28;20089;-90
2022/06/13 06:52:41;;;;;;;8.18;1.60;;;;;;;24.17;100.00;94603.66;4959871;28;20062;-90
2022/06/13 07:00:43;;;;;;;3.45;1.45;;;;;;;24.88;100.00;94610.91;4980090;28;20037;-90
2022/06/13 07:03:12;;;;;;;5.43;1.30;;;;;;;25.09;100.00;94605.19;4979626;28;20026;-91
2022/06/13 07:05:37;;;;;;;4.50;1.35;;;;;;;25.22;100.00;94599.66;4964391;28;20034;-91
2022/06/13 07:08:03;;;;;;;6.72;1.55;;;;;;;24.59;100.00;94607.63;4964242;28;20331;-91
2022/06/13 07:10:28;;;;;;;7.50;1.10;;;;;;;24.67;100.00;94606.63;4964268;28;20026;-90
2022/06/13 07:12:54;;;;;;;2.78;1.33;;;;;;;24.78;100.00;94608.78;4963973;28;20030;-91
2022/06/13 07:15:20;;;;;;;5.28;1.13;;;;;;;24.79;100.00;94613.00;4963938;28;20042;-91
2022/06/13 07:17:45;;;;;;;2.92;1.10;;;;;;;24.81;100.00;94605.38;4979646;28;20122;-91
2022/06/13 07:20:11;;;;;;;2.47;1.48;;;;;;;24.15;100.00;94605.94;4979834;28;20062;-90
2022/06/13 07:22:40;;;;;;;2.47;1.00;;;;;;;23.83;100.00;94606.75;4979725;28;20041;-90
2022/06/13 07:25:08;;;;;;;1.65;1.00;;;;;;;24.47;100.00;94603.19;4963685;28;20034;-91
2022/06/13 07:27:33;;;;;;;2.35;1.33;;;;;;;23.16;100.00;94599.34;4979838;28;20451;-91
2022/06/13 07:29:59;;;;;;;2.15;1.20;;;;;;;22.10;100.00;94600.97;4980967;28;20030;-90
2022/06/13 07:32:25;;;;;;;2.63;1.30;;;;;;;21.40;100.00;94604.47;4980626;28;20084;-90
2022/06/13 07:34:52;;;;;;;4.22;1.60;;;;;;;21.40;100.00;94602.56;4979751;28;20037;-91
2022/06/13 07:40:09;;;;;;;1.83;1.20;;;;;;;20.98;100.00;94603.47;4980105;28;20037;-91
2022/06/13 07:42:43;;;;;;;2.60;1.10;;;;;;;21.18;100.00;94599.19;4979742;28;20035;-91
2022/06/13 07:45:18;;;;;;;1.85;1.05;;;;;;;21.65;100.00;94602.59;4980012;28;20034;-91
2022/06/13 07:47:44;;;;;;;1.88;1.00;;;;;;;21.86;100.00;94599.88;4979954;28;20117;-90
2022/06/13 07:50:16;;;;;;;2.80;1.20;;;;;;;21.58;100.00;94597.03;4963883;28;20128;-90
2022/06/13 07:52:59;;;;;;;;;;;;;;;;;;;;;
2022/06/13 07:55:26;;;;;;;2.30;1.27;;;;;;;20.94;100.00;94593.78;4980353;28;20022;-85
2022/06/13 07:57:52;;;;;;;2.78;1.52;;;;;;;21.16;100.00;94592.63;4978822;28;20033;-86
2022/06/13 08:00:25;;;;;;;3.13;1.20;;;;;;;21.86;100.00;94591.88;4978811;28;20039;-87
2022/06/13 08:02:51;;;;;;;1.77;1.20;;;;;;;22.37;100.00;94585.34;4979000;28;20065;-87
2022/06/13 08:05:19;;;;;;;2.20;1.13;;;;;;;22.67;100.00;94585.09;4979266;28;20034;-87
2022/06/13 08:07:44;;;;;;;2.08;1.10;;;;;;;22.21;100.00;94579.94;4979022;28;20033;-87
2022/06/13 08:10:10;;;;;;;6.75;1.30;;;;;;;21.74;100.00;94570.53;4979381;28;20026;-86
2022/06/13 08:12:39;;;;;;;1.65;1.10;;;;;;;22.40;100.00;94581.22;4978853;28;20039;-86
2022/06/13 08:15:04;;;;;;;2.22;1.35;;;;;;;22.43;100.00;94584.00;4978485;28;20081;-87
2022/06/13 08:17:30;;;;;;;2.20;1.20;;;;;;;22.20;100.00;94581.06;4983844;28;20070;-87
2022/06/13 08:19:55;;;;;;;4.00;1.30;;;;;;;22.59;100.00;94580.66;4980023;28;20034;-87
2022/06/13 08:22:23;;;;;;;3.30;1.30;;;;;;;23.05;100.00;94576.88;4978985;28;20349;-85
2022/06/13 08:24:49;;;;;;;6.75;3.58;;;;;;;23.30;100.00;94577.56;4998704;28;20042;-86
2022/06/13 08:27:14;;;;;;;2.25;1.63;;;;;;;23.43;100.00;94580.94;4998225;28;20429;-88
2022/06/13 08:29:40;;;;;;;3.58;1.52;;;;;;;23.69;100.00;94585.00;4995604;28;20042;-87
2022/06/13 08:32:05;;;;;;;1.35;1.00;;;;;;;23.77;100.00;94588.63;4962472;28;20089;-87
2022/06/13 08:34:31;;;;;;;4.32;1.27;;;;;;;22.97;100.00;94587.41;4979478;28;20035;-87
2022/06/13 08:36:57;;;;;;;1.90;1.05;;;;;;;23.29;100.00;94592.81;4978399;28;20334;-87
2022/06/13 08:39:22;;;;;;;1.88;1.00;;;;;;;23.86;93.99;94598.00;4978602;28;20046;-87
2022/06/13 08:41:59;;;;;;;4.00;1.00;;;;;;;24.32;100.00;94596.75;4978587;28;20133;-88
2022/06/13 08:44:43;;;;;;;1.42;0.95;;;;;;;24.48;80.83;94601.28;4962777;28;20089;-88
2022/06/13 08:47:20;;;;;;;2.17;0.98;;;;;;;24.96;89.44;94598.41;4973004;28;20081;-87
2022/06/13 08:50:12;;;;;;;3.45;1.25;;;;;;;24.74;71.63;94603.31;4958772;28;20456;-88
2022/06/13 08:52:44;;;;;;;1.17;1.08;;;;;;;24.33;88.82;94598.28;4959658;28;20035;-87
2022/06/13 08:55:13;;;;;;;2.33;1.20;;;;;;;25.38;89.27;94600.31;4959581;28;20054;-86
2022/06/13 08:57:45;;;;;;;3.65;1.08;;;;;;;25.75;100.00;94596.34;4958194;28;20109;-87
2022/06/13 09:00:14;;;;;;;6.50;0.90;;;;;;;25.98;100.00;94600.94;4942766;29;20031;-86
2022/06/13 09:02:49;;;;;;;2.05;1.10;;;;;;;26.15;100.00;94599.63;4942572;29;20070;-86
2022/06/13 09:05:24;;;;;;;1.92;1.10;;;;;;;26.39;100.00;94595.00;4958259;29;20046;-89
2022/06/13 09:08:18;;;;;;;2.13;0.98;;;;;;;27.13;88.88;94603.56;4959287;28;20113;-87
2022/06/13 09:10:58;;;;;;;1.90;1.10;;;;;;;27.45;85.90;94603.09;4958686;29;20039;-88
2022/06/13 09:13:52;;;;;;;3.22;1.20;;;;;;;27.99;83.73;94592.03;4958193;28;20400;-86
2022/06/13 09:16:27;;;;;;;4.47;1.13;;;;;;;28.56;69.07;94596.22;4950992;28;20404;-89
2022/06/13 09:19:13;;;;;;;1.70;1.13;;;;;;;29.05;69.99;94599.50;4959339;29;20443;-89
2022/06/13 09:22:12;;;;;;;4.15;1.23;;;;;;;29.03;68.90;94596.41;4958179;29;20031;-88
2022/06/13 09:24:52;;;;;;;5.85;1.15;;;;;;;28.48;72.38;94595.41;4956095;29;20039;-88
2022/06/13 09:27:23;;;;;;;2.15;1.45;;;;;;;28.28;69.19;94592.22;4944194;28;20043;-89
2022/06/13 09:29:59;;;;;;;4.97;1.13;;;;;;;28.42;67.69;94588.81;4980690;28;20363;-87
2022/06/13 09:32:33;;;;;;;3.08;1.15;;;;;;;28.14;66.30;94587.50;4970812;28;20041;-88
2022/06/13 09:35:12;;;;;;;4.32;1.25;;;;;;;28.59;63.20;94592.75;4980662;28;20340;-88
2022/06/13 09:37:48;;;;;;;3.20;1.02;;;;;;;28.12;69.19;94591.69;4996421;28;20085;-88
2022/06/13 09:40:18;;;;;;;2.20;1.20;;;;;;;28.04;73.23;94593.56;4987984;28;20062;-89
2022/06/13 09:43:04;;;;;;;9.68;1.77;;;;;;;26.73;91.71;94595.00;4957952;29;20027;-88
2022/06/13 09:45:39;;;;;;;1.75;1.10;;;;;;;27.07;86.71;94592.38;4958192;28;20034;-88
2022/06/13 09:48:07;;;;;;;1.75;1.20;;;;;;;27.38;85.17;94598.44;4959325;28;20031;-89
2022/06/13 09:50:43;;;;;;;6.18;1.10;;;;;;;27.37;90.75;94596.88;4975354;28;20142;-89
2022/06/13 09:53:28;;;;;;;1.55;1.30;;;;;;;27.35;100.00;94583.03;4980274;28;20113;-88
2022/06/13 09:56:03;;;;;;;2.25;1.10;;;;;;;27.32;92.63;94585.69;4978510;28;20030;-89
2022/06/13 09:58:41;;;;;;;3.88;1.20;;;;;;;27.86;94.71;94583.47;4977021;28;20074;-89
2022/06/13 10:01:12;;;;;;;2.25;1.40;;;;;;;27.62;96.60;94590.19;4979196;28;20027;-89
2022/06/13 10:03:53;;;;;;;4.50;1.52;;;;;;;28.64;91.13;94587.00;4980438;28;20023;-90
2022/06/13 10:06:45;;;;;;;2.85;1.52;;;;;;;28.88;77.78;94586.72;4991934;28;20037;-89
2022/06/13 10:09:39;;;;;;;4.45;1.60;;;;;;;28.75;80.07;94586.28;4980045;28;20176;-89
2022/06/13 10:12:31;;;;;;;;;;;;;;;;;;;;;
2022/06/13 10:15:20;;;;;;;3.10;1.40;;;;;;;27.56;90.30;94583.63;4997221;28;20015;-90
2022/06/13 10:17:58;;;;;;;7.68;1.63;;;;;;;26.65;83.71;94578.03;4980260;28;20061;-89
2022/06/13 10:21:03;;;;;;;;;;;;;;;;;;;;;
2022/06/13 10:23:46;;;;;;;3.88;1.25;;;;;;;27.26;76.49;94579.06;4991530;28;20339;-90
2022/06/13 10:26:29;;;;;;;6.65;1.77;;;;;;;27.47;77.39;94573.13;4997534;28;20026;-89
2022/06/13 10:28:57;;;;;;;3.78;1.40;;;;;;;27.70;73.74;94574.88;4996110;28;20026;-90
2022/06/13 10:31:49;;;;;;;4.78;1.67;;;;;;;27.77;71.35;94562.25;4996201;28;20030;-88
2022/06/13 10:34:26;;;;;;;5.43;1.55;;;;;;;28.20;69.58;94566.38;4996801;28;20037;-91
2022/06/13 10:37:15;;;;;;;3.38;1.02;;;;;;;28.36;59.03;94563.41;4998377;28;20455;-89
2022/06/13 10:39:44;;;;;;;2.85;1.25;;;;;;;28.03;63.51;94559.72;4998144;28;20034;-90
2022/06/13 10:42:17;;;;;;;1.65;0.95;;;;;;;27.67;54.89;94560.25;4981149;28;20023;-88
2022/06/13 10:44:43;;;;;;;3.13;1.20;;;;;;;27.52;59.94;94553.97;4980959;28;20433;-89
2022/06/13 10:47:39;;;;;;;3.25;1.13;;;;;;;27.36;63.32;94556.88;4980666;28;20165;-88
2022/06/13 10:50:34;;;;;;;2.88;1.20;;;;;;;27.59;67.00;94550.59;4996018;28;20038;-88
2022/06/13 10:53:08;;;;;;;3.10;1.98;;;;;;;27.84;62.49;94541.94;4956881;28;20352;-89
2022/06/13 10:55:38;;;;;;;1.58;1.00;;;;;;;27.74;67.91;94544.16;4996406;28;20351;-89
2022/06/13 10:58:09;;;;;;;5.35;1.50;;;;;;;27.46;62.09;94547.34;4988697;28;20034;-90
2022/06/13 11:00:35;;;;;;;8.23;1.52;;;;;;;27.50;65.78;94527.41;4976568;28;20027;-88
2022/06/13 11:03:17;;;;;;;2.63;1.20;;;;;;;27.25;61.89;94540.66;4960548;28;20049;-89
2022/06/13 11:06:21;;;;;;;2.53;1.40;;;;;;;27.79;65.97;94540.34;4976308;28;20033;-91
2022/06/13 11:08:46;;;;;;;4.65;1.45;;;;;;;28.26;65.30;94535.25;4976846;28;20037;-89
2022/06/13 11:11:17;;;;;;;1.55;1.00;;;;;;;27.52;61.75;94538.59;4979523;28;20030;-88
2022/06/13 11:13:52;;;;;;;2.70;1.20;;;;;;;27.94;63.02;94525.03;4980167;28;20027;-89
2022/06/13 11:22:48;;;;;;;;;;;;;;;;;;;;;
2022/06/13 11:25:24;;;;;;;1.58;1.10;;;;;;;28.04;56.30;94513.56;4980088;28;20042;-91
2022/06/13 11:28:25;;;;;;;;;;;;;;;;;;;;;
2022/06/13 11:31:20;;;;;;;2.45;1.33;;;;;;;28.68;57.00;94521.53;4980120;28;20455;-91
2022/06/13 11:33:48;;;;;;;3.63;0.85;;;;;;;28.74;54.87;94515.41;4963791;28;20105;-88
2022/06/13 11:36:19;;;;;;;1.23;0.95;;;;;;;28.20;52.54;94509.84;4979911;28;20037;-88
2022/06/13 11:39:04;;;;;;;1.58;0.82;;;;;;;28.56;50.64;94506.50;4980341;28;20031;-90
2022/06/13 11:41:44;;;;;;;4.10;1.00;;;;;;;27.91;49.54;94510.44;4963646;28;20035;-89
2022/06/13 11:44:17;;;;;;;4.05;1.10;;;;;;;28.72;50.97;94512.31;4979541;28;20031;-87
2022/06/13 11:46:43;;;;;;;1.85;1.00;;;;;;;29.09;50.59;94493.56;4990934;28;20042;-88
2022/06/13 11:49:15;;;;;;;6.38;1.38;;;;;;;29.25;47.92;94498.56;4992585;28;20085;-87
2022/06/13 11:52:11;;;;;;;3.03;1.17;;;;;;;29.39;51.23;94503.19;4980501;28;20041;-88
2022/06/13 11:54:51;;;;;;;4.80;1.02;;;;;;;29.46;49.03;94497.81;4994493;28;20469;-86
2022/06/13 11:57:37;;;;;;;1.50;0.95;;;;;;;30.27;50.20;94494.59;4999747;28;20037;-86
2022/06/13 12:00:18;;;;;;;1.45;0.85;;;;;;;30.43;46.44;94491.44;4984555;28;20471;-86
2022/06/13 12:02:50;;;;;;;1.23;0.85;;;;;;;30.79;47.29;94492.47;4980344;28;20058;-87
2022/06/13 12:05:20;;;;;;;1.67;1.00;;;;;;;30.39;43.78;94488.00;4980130;28;20100;-87
2022/06/13 12:08:06;;;;;;;2.28;0.80;;;;;;;30.29;43.24;94486.88;4980466;28;20160;-87
2022/06/13 12:10:41;;;;;;;2.13;1.00;;;;;;;29.98;43.60;94485.78;4993774;28;20042;-90
2022/06/13 12:13:15;;;;;;;1.23;0.80;;;;;;;28.78;44.86;94480.38;4999483;28;20042;-86
2022/06/13 12:15:48;;;;;;;0.98;0.75;;;;;;;28.68;42.69;94478.41;4985351;28;20027;-87
2022/06/13 12:18:33;;;;;;;;;;;;;;;29.51;47.06;94475.06;4986467;28;20433;-86
2022/06/13 12:21:17;;;;;;;1.88;1.17;;;;;;;29.02;45.02;94480.84;4998873;28;19916;-85
2022/06/13 12:23:50;;;;;;;3.22;0.80;;;;;;;29.35;50.71;94474.28;4997916;28;20128;-87
2022/06/13 12:26:25;;;;;;;4.35;1.05;;;;;;;28.82;46.36;94470.41;4999245;28;20086;-86
2022/06/13 12:29:03;;;;;;;3.65;0.98;;;;;;;29.15;45.46;94476.59;4999094;28;20089;-86